Terminal Aerodrome Forecast
Issued by NWS

Home | Current Version | Previous Version | Text Only | Print | Product List | Glossary On
Versions: 1 2 3 4 5 6 7 8 9 10 11 12 13 14 15 16 17 18 19 20 21 22 23 24 25 26 27 28
000
FTUS43 KMKX 211739
TAFUES
TAF
KUES 211739Z 2118/2218 16007KT P6SM FEW035 BKN200
     FM212100 17008KT P6SM SHRA VCTS SCT035CB BKN100
      TEMPO 2123/2203 4SM TSRA BKN035CB
     FM220300 17004KT P6SM SHRA VCTS SCT035CB OVC090 WS020/24040KT
     FM220700 18007KT P6SM SHRA OVC060
     FM220900 18005KT 5SM SHRA OVC060
     FM221300 22006KT P6SM BKN035=

USA.gov is the U.S. government's official web portal to all federal, state and local government web resources and services.